Time;durP1;ratioP1;P1;durP2;ratioP2;P2;SDS_P1;SDS_P2;PMS_P1;PMS_P2;Temp;Humidity;BMP_temperature;BMP_pressure;BME280_temperature;BME280_humidity;BME280_pressure;Samples;Min_cycle;Max_cycle;Signal;HPM_P1;HPM_P2
2022/04/10 00:01:08;;;;;;;9.57;3.70;;;;;;;2.60;81.50;100234.72;5058421;28;20512;-66
2022/04/10 00:03:35;;;;;;;5.77;2.87;;;;;;;2.64;81.70;100238.84;5064941;28;20553;-66
2022/04/10 00:06:03;;;;;;;10.97;3.20;;;;;;;2.52;81.96;100242.22;5059556;28;20567;-65
2022/04/10 00:08:29;;;;;;;10.27;4.10;;;;;;;2.47;82.30;100240.78;5075099;28;20468;-66
2022/04/10 00:10:56;;;;;;;4.63;3.00;;;;;;;2.54;82.15;100242.97;5079904;28;20535;-66
2022/04/10 00:13:22;;;;;;;9.03;3.50;;;;;;;2.50;82.29;100238.81;5068198;28;20536;-66
2022/04/10 00:15:49;;;;;;;10.77;3.37;;;;;;;2.50;82.21;100245.88;5058858;28;20515;-66
2022/04/10 00:18:16;;;;;;;6.93;3.20;;;;;;;2.57;82.12;100248.06;5072007;28;20507;-65
2022/04/10 00:20:42;;;;;;;5.93;2.80;;;;;;;2.59;82.02;100246.19;5079565;28;20472;-66
2022/04/10 00:23:10;;;;;;;8.73;2.93;;;;;;;2.74;81.59;100248.88;5069746;28;20571;-65
2022/04/10 00:25:37;;;;;;;10.00;3.63;;;;;;;2.64;81.54;100241.50;5059162;28;20560;-66
2022/04/10 00:28:04;;;;;;;4.37;2.90;;;;;;;2.62;81.28;100243.38;5060076;28;20509;-66
2022/04/10 00:30:32;;;;;;;8.63;3.07;;;;;;;2.54;82.06;100250.88;5059304;28;20507;-66
2022/04/10 00:32:59;;;;;;;7.23;2.73;;;;;;;2.49;82.00;100247.66;5066712;28;20484;-65
2022/04/10 00:35:25;;;;;;;5.23;2.83;;;;;;;2.46;82.11;100250.47;5071147;28;20514;-66
2022/04/10 00:37:52;;;;;;;8.90;3.27;;;;;;;2.39;82.19;100251.78;5065102;28;20953;-66
2022/04/10 00:40:20;;;;;;;5.50;3.13;;;;;;;2.35;82.64;100250.25;5069840;28;20508;-66
2022/04/10 00:42:48;;;;;;;6.60;3.10;;;;;;;2.42;82.47;100268.28;5063212;28;20503;-65
2022/04/10 00:45:16;;;;;;;12.40;3.40;;;;;;;2.38;82.62;100265.91;5069857;28;20521;-65
2022/04/10 00:47:44;;;;;;;8.97;3.33;;;;;;;2.37;82.67;100272.13;5059525;28;20471;-65
2022/04/10 00:50:11;;;;;;;5.47;2.70;;;;;;;2.31;82.60;100267.19;5058657;28;20443;-64
2022/04/10 00:52:39;;;;;;;7.00;3.10;;;;;;;2.43;82.32;100266.47;5060508;28;20480;-65
2022/04/10 00:55:06;;;;;;;8.80;5.80;;;;;;;2.28;82.34;100265.59;5074698;28;20484;-65
2022/04/10 00:57:35;;;;;;;7.00;3.20;;;;;;;2.28;83.02;100280.56;5059045;28;20514;-65
2022/04/10 01:00:02;;;;;;;5.30;3.20;;;;;;;2.29;82.81;100282.25;5066772;28;20452;-65
2022/04/10 01:02:28;;;;;;;12.40;3.40;;;;;;;2.21;83.08;100282.69;5059558;28;20499;-65
2022/04/10 01:04:56;;;;;;;11.67;3.20;;;;;;;2.35;82.79;100274.00;5078746;28;20509;-65
2022/04/10 01:07:22;;;;;;;8.20;3.37;;;;;;;2.29;82.69;100282.25;5063035;28;20479;-65
2022/04/10 01:09:49;;;;;;;7.20;2.77;;;;;;;2.24;82.67;100280.75;5079094;28;20447;-65
2022/04/10 01:12:15;;;;;;;8.50;4.10;;;;;;;2.17;83.36;100287.31;5062734;28;21171;-65
2022/04/10 01:14:43;;;;;;;9.87;3.50;;;;;;;2.13;83.34;100287.53;5078880;28;20512;-66
2022/04/10 01:17:11;;;;;;;6.97;3.20;;;;;;;2.23;83.09;100288.72;5048521;28;20519;-65
2022/04/10 01:19:38;;;;;;;13.37;3.70;;;;;;;2.18;83.41;100286.34;5077505;28;20468;-65
2022/04/10 01:22:07;;;;;;;9.70;4.87;;;;;;;2.06;83.61;100289.66;5076935;28;20546;-65
2022/04/10 01:24:36;;;;;;;12.93;3.70;;;;;;;2.11;83.67;100286.78;5063797;28;20804;-66
2022/04/10 01:27:03;;;;;;;7.03;3.00;;;;;;;2.12;83.82;100280.56;5062649;28;20527;-65
2022/04/10 01:29:30;;;;;;;8.97;3.00;;;;;;;2.19;83.32;100290.69;5081702;28;20476;-65
2022/04/10 01:31:57;;;;;;;9.30;3.73;;;;;;;2.20;83.25;100284.47;5069626;28;20484;-66
2022/04/10 01:34:24;;;;;;;10.13;3.60;;;;;;;2.18;83.50;100290.78;5079185;28;20695;-65
2022/04/10 01:36:51;;;;;;;7.17;2.90;;;;;;;2.26;83.23;100289.41;5070336;28;20931;-66
2022/04/10 01:39:18;;;;;;;6.13;3.00;;;;;;;2.25;82.97;100287.69;5063095;28;20476;-65
2022/04/10 01:41:46;;;;;;;6.40;2.73;;;;;;;2.23;83.34;100283.47;5073640;28;20518;-65
2022/04/10 01:44:13;;;;;;;4.73;2.70;;;;;;;2.27;83.06;100279.69;5063197;28;20499;-66
2022/04/10 01:46:39;;;;;;;5.53;4.17;;;;;;;2.29;83.06;100275.19;5071445;28;20562;-65
2022/04/10 01:49:08;;;;;;;11.80;3.47;;;;;;;2.42;82.70;100280.63;5062154;28;20465;-65
2022/04/10 01:51:35;;;;;;;7.27;3.00;;;;;;;2.35;82.87;100287.19;5068622;28;20595;-65
2022/04/10 01:54:02;;;;;;;10.50;3.93;;;;;;;2.39;82.56;100283.44;5083539;28;20496;-67
2022/04/10 01:56:29;;;;;;;10.90;3.77;;;;;;;2.50;82.51;100281.03;5075094;28;20514;-65
2022/04/10 01:58:57;;;;;;;6.67;3.83;;;;;;;2.49;82.27;100279.34;5075980;28;20441;-65
2022/04/10 02:01:24;;;;;;;7.90;3.63;;;;;;;2.33;82.40;100284.63;5061693;28;20504;-65
2022/04/10 02:03:51;;;;;;;13.83;3.87;;;;;;;2.38;82.33;100287.03;5062747;28;20520;-65
2022/04/10 02:06:18;;;;;;;8.90;3.97;;;;;;;2.37;82.51;100280.03;5068108;28;20854;-65
2022/04/10 02:08:45;;;;;;;11.60;3.17;;;;;;;2.39;82.26;100291.34;5062926;28;20501;-65
2022/04/10 02:11:12;;;;;;;8.80;3.60;;;;;;;2.29;82.57;100284.88;5066571;28;20547;-65
2022/04/10 02:13:39;;;;;;;7.10;2.90;;;;;;;2.42;82.20;100281.47;5078170;28;20461;-66
2022/04/10 02:16:09;;;;;;;13.23;3.60;;;;;;;2.34;82.37;100274.94;5063941;28;20503;-65
2022/04/10 02:18:36;;;;;;;8.00;3.37;;;;;;;2.39;82.35;100279.00;5082442;28;20470;-65
2022/04/10 02:21:03;;;;;;;9.83;3.23;;;;;;;2.34;82.25;100283.69;5072610;28;20538;-65
2022/04/10 02:23:30;;;;;;;7.20;3.83;;;;;;;2.26;82.28;100284.13;5061794;28;20507;-65
2022/04/10 02:25:56;;;;;;;10.07;3.47;;;;;;;2.19;82.53;100288.06;5067214;28;20758;-65
2022/04/10 02:28:23;;;;;;;8.40;4.10;;;;;;;2.09;82.79;100296.56;5061742;28;20683;-65
2022/04/10 02:30:50;;;;;;;8.20;3.83;;;;;;;2.06;83.11;100281.75;5071975;28;20539;-66
2022/04/10 02:33:19;;;;;;;8.40;3.90;;;;;;;2.20;82.79;100291.53;5064229;28;20548;-65
2022/04/10 02:35:46;;;;;;;7.10;3.33;;;;;;;2.16;82.93;100293.50;5066144;28;20552;-67
2022/04/10 02:38:13;;;;;;;12.70;4.10;;;;;;;2.12;83.09;100296.38;5061562;28;20500;-66
2022/04/10 02:40:39;;;;;;;6.40;3.90;;;;;;;2.04;83.50;100299.47;5063046;28;20567;-66
2022/04/10 02:43:08;;;;;;;8.43;3.83;;;;;;;2.12;83.13;100297.25;5061834;28;20524;-65
2022/04/10 02:45:34;;;;;;;8.30;3.40;;;;;;;2.15;83.32;100299.69;5061182;28;20918;-66
2022/04/10 02:48:01;;;;;;;6.20;3.70;;;;;;;1.91;83.81;100298.41;5067546;28;20432;-65
2022/04/10 02:50:29;;;;;;;8.03;3.80;;;;;;;2.01;83.50;100302.25;5080303;28;20555;-65
2022/04/10 02:52:55;;;;;;;7.63;4.03;;;;;;;1.85;84.13;100302.25;5073340;28;20536;-65
2022/04/10 02:55:22;;;;;;;9.20;4.60;;;;;;;1.77;84.34;100300.03;5072686;28;20544;-66
2022/04/10 02:57:49;;;;;;;8.67;4.73;;;;;;;1.86;84.27;100307.44;5063118;28;21878;-66
2022/04/10 03:00:16;;;;;;;8.37;4.17;;;;;;;1.90;84.08;100317.84;5059852;28;20471;-65
2022/04/10 03:02:43;;;;;;;10.20;4.00;;;;;;;1.85;84.09;100307.53;5061435;28;20539;-66
2022/04/10 03:05:10;;;;;;;11.90;4.57;;;;;;;1.87;84.25;100313.56;5060452;28;20492;-66
2022/04/10 03:07:38;;;;;;;14.00;4.40;;;;;;;1.85;84.29;100321.53;5060583;28;20496;-65
2022/04/10 03:10:05;;;;;;;14.17;4.30;;;;;;;1.85;84.15;100310.16;5080118;28;20531;-65
2022/04/10 03:12:32;;;;;;;10.53;4.03;;;;;;;1.81;84.28;100314.75;5077135;28;20492;-65
2022/04/10 03:14:59;;;;;;;8.13;4.13;;;;;;;1.78;84.48;100319.34;5077136;28;20491;-66
2022/04/10 03:17:26;;;;;;;8.37;5.30;;;;;;;1.72;84.75;100309.13;5071723;28;20504;-65
2022/04/10 03:19:53;;;;;;;10.30;5.03;;;;;;;1.64;84.91;100314.81;5060748;28;20959;-66
2022/04/10 03:22:19;;;;;;;7.60;4.50;;;;;;;1.52;85.36;100316.31;5065826;28;20507;-66
2022/04/10 03:24:47;;;;;;;8.93;5.43;;;;;;;1.71;85.09;100332.00;5073890;28;21050;-65
2022/04/10 03:27:14;;;;;;;10.00;4.90;;;;;;;1.68;85.12;100329.50;5064584;28;20490;-65
2022/04/10 03:29:41;;;;;;;10.77;5.70;;;;;;;1.63;85.45;100323.63;5072009;28;20484;-66
2022/04/10 03:32:08;;;;;;;10.40;6.00;;;;;;;1.62;85.58;100329.84;5062061;28;20575;-66
2022/04/10 03:34:34;;;;;;;13.67;6.30;;;;;;;1.64;85.19;100336.72;5070738;28;21012;-66
2022/04/10 03:37:01;;;;;;;7.97;5.33;;;;;;;1.75;84.96;100330.88;5069838;28;20552;-66
2022/04/10 03:39:28;;;;;;;16.80;6.80;;;;;;;1.61;85.42;100336.03;5060606;28;20480;-66
2022/04/10 03:41:56;;;;;;;12.50;6.20;;;;;;;1.69;85.39;100333.88;5072552;28;21032;-66
2022/04/10 03:44:22;;;;;;;14.83;6.30;;;;;;;1.63;85.42;100347.34;5080188;28;20507;-66
2022/04/10 03:46:49;;;;;;;12.60;6.57;;;;;;;1.57;85.70;100332.72;5058607;28;20481;-66
2022/04/10 03:49:15;;;;;;;8.57;6.13;;;;;;;1.65;85.89;100342.84;5060138;28;20987;-66
2022/04/10 03:51:42;;;;;;;13.83;7.80;;;;;;;1.64;85.75;100344.63;5069071;28;20878;-66
2022/04/10 03:54:08;;;;;;;14.50;7.20;;;;;;;1.67;85.42;100346.28;5080961;28;20877;-66
2022/04/10 03:56:35;;;;;;;12.57;6.97;;;;;;;1.76;85.45;100352.84;5067807;28;20901;-65
2022/04/10 03:59:03;;;;;;;11.77;7.10;;;;;;;1.55;85.54;100368.00;5060835;28;20469;-66
2022/04/10 04:01:30;;;;;;;12.00;8.03;;;;;;;1.62;85.93;100362.31;5066462;28;20541;-65
2022/04/10 04:03:56;;;;;;;10.67;6.50;;;;;;;1.60;85.67;100368.63;5081188;28;20511;-65
2022/04/10 04:06:23;;;;;;;11.07;8.07;;;;;;;1.56;85.54;100360.00;5067799;28;20507;-65
2022/04/10 04:08:49;;;;;;;13.57;8.00;;;;;;;1.54;85.47;100364.50;5060210;28;20448;-65
2022/04/10 04:11:16;;;;;;;11.77;7.70;;;;;;;1.50;85.86;100379.63;5063544;28;20545;-65
2022/04/10 04:13:43;;;;;;;12.77;7.63;;;;;;;1.49;85.80;100370.03;5061235;28;20489;-65
2022/04/10 04:16:11;;;;;;;12.33;7.73;;;;;;;1.37;86.21;100388.22;5061895;28;20495;-65
2022/04/10 04:18:38;;;;;;;18.80;9.83;;;;;;;1.43;86.13;100380.88;5060396;28;20528;-65
2022/04/10 04:21:05;;;;;;;16.73;8.20;;;;;;;1.25;86.33;100373.91;5058495;28;20473;-65
2022/04/10 04:23:32;;;;;;;11.90;7.90;;;;;;;1.37;86.22;100386.47;5059064;28;20447;-65
2022/04/10 04:25:58;;;;;;;12.40;8.73;;;;;;;1.36;86.35;100390.03;5078685;28;20499;-66
2022/04/10 04:28:25;;;;;;;13.70;8.20;;;;;;;1.43;86.02;100395.84;5072541;28;20475;-66
2022/04/10 04:30:51;;;;;;;16.70;9.80;;;;;;;1.36;85.83;100397.09;5077427;28;20548;-65
2022/04/10 04:33:19;;;;;;;14.93;8.20;;;;;;;1.31;85.79;100398.16;5064295;28;20517;-65
2022/04/10 04:35:46;;;;;;;16.33;10.10;;;;;;;1.27;86.28;100403.66;5076184;28;20550;-65
2022/04/10 04:38:12;;;;;;;13.40;8.07;;;;;;;1.33;86.27;100403.34;5067785;28;20492;-65
2022/04/10 04:40:39;;;;;;;18.90;9.70;;;;;;;1.36;85.94;100410.25;5067684;28;20489;-65
2022/04/10 04:43:06;;;;;;;12.43;8.93;;;;;;;1.23;86.22;100402.97;5064390;28;21446;-65
2022/04/10 04:45:32;;;;;;;12.23;8.40;;;;;;;1.36;86.16;100407.63;5070887;28;20566;-65
2022/04/10 04:47:59;;;;;;;16.07;9.47;;;;;;;1.36;86.21;100418.16;5063160;28;21031;-65
2022/04/10 04:50:27;;;;;;;12.27;8.87;;;;;;;1.51;85.95;100419.97;5062066;28;20476;-65
2022/04/10 04:52:53;;;;;;;17.73;8.53;;;;;;;1.52;85.77;100419.06;5063204;28;20480;-65
2022/04/10 04:55:20;;;;;;;13.73;9.03;;;;;;;1.46;85.87;100425.50;5064178;28;20841;-64
2022/04/10 04:57:47;;;;;;;18.93;9.23;;;;;;;1.66;85.57;100442.06;5063562;28;20460;-65
2022/04/10 05:00:14;;;;;;;18.83;8.90;;;;;;;1.70;85.35;100430.44;5072159;28;20737;-66
2022/04/10 05:02:41;;;;;;;16.07;9.40;;;;;;;1.82;84.88;100439.50;5063840;28;20595;-65
2022/04/10 05:05:08;;;;;;;13.77;10.03;;;;;;;2.05;84.06;100448.84;5070868;28;20535;-65
2022/04/10 05:07:36;;;;;;;18.63;10.13;;;;;;;2.35;83.07;100443.69;5066630;28;20477;-66
2022/04/10 05:10:03;;;;;;;15.37;10.30;;;;;;;2.62;81.48;100457.19;5071738;28;20480;-65
2022/04/10 05:12:32;;;;;;;20.33;10.80;;;;;;;2.84;80.02;100445.41;5063005;28;20483;-65
2022/04/10 05:14:59;;;;;;;15.83;10.63;;;;;;;2.86;78.91;100461.16;5075954;28;20990;-66
2022/04/10 05:17:26;;;;;;;16.73;10.70;;;;;;;3.00;78.69;100463.88;5061674;28;20491;-66
2022/04/10 05:19:54;;;;;;;14.73;9.90;;;;;;;3.78;76.94;100458.47;5067048;28;20653;-66
2022/04/10 05:22:20;;;;;;;19.60;9.57;;;;;;;4.12;74.37;100451.16;5061870;28;20472;-65
2022/04/10 05:24:48;;;;;;;14.90;10.47;;;;;;;3.86;74.65;100450.09;5062618;28;20515;-67
2022/04/10 05:27:15;;;;;;;19.17;9.70;;;;;;;4.06;74.42;100459.44;5059739;28;20503;-67
2022/04/10 05:29:41;;;;;;;14.37;8.23;;;;;;;4.46;72.43;100473.72;5072773;28;20475;-66
2022/04/10 05:32:10;;;;;;;10.30;6.53;;;;;;;4.92;70.60;100463.81;5082115;28;20566;-67
2022/04/10 05:34:36;;;;;;;12.80;7.53;;;;;;;4.54;70.98;100473.25;5071606;28;20452;-67
2022/04/10 05:37:03;;;;;;;9.00;7.47;;;;;;;5.37;68.80;100475.00;5071173;28;20515;-67
2022/04/10 05:39:30;;;;;;;13.60;6.23;;;;;;;6.20;66.48;100466.75;5065754;28;20437;-66
2022/04/10 05:41:58;;;;;;;10.30;6.00;;;;;;;4.90;68.40;100464.75;5062504;28;20508;-67
2022/04/10 05:44:24;;;;;;;11.83;6.23;;;;;;;5.65;67.15;100464.22;5062371;28;20520;-67
2022/04/10 05:46:51;;;;;;;11.67;6.17;;;;;;;5.94;65.79;100464.06;5061670;28;20530;-70
2022/04/10 05:49:18;;;;;;;7.37;4.53;;;;;;;5.84;65.36;100471.78;5063123;28;20473;-68
2022/04/10 05:51:46;;;;;;;15.80;4.63;;;;;;;5.97;65.23;100476.28;5064720;28;21798;-67
2022/04/10 05:54:13;;;;;;;10.27;4.77;;;;;;;6.28;64.25;100476.81;5068254;28;20441;-68
2022/04/10 05:56:40;;;;;;;14.00;5.27;;;;;;;6.21;63.90;100476.41;5058686;28;20488;-68
2022/04/10 05:59:09;;;;;;;11.47;4.70;;;;;;;6.68;63.93;100474.84;5070286;28;20440;-68
2022/04/10 06:01:35;;;;;;;9.80;4.70;;;;;;;6.88;62.69;100476.06;5080054;28;20933;-68
2022/04/10 06:04:02;;;;;;;9.00;4.83;;;;;;;7.95;59.15;100481.44;5063572;28;20491;-67
2022/04/10 06:06:29;;;;;;;9.33;5.10;;;;;;;7.77;58.23;100475.75;5061807;28;20552;-67
2022/04/10 06:08:55;;;;;;;8.43;4.10;;;;;;;8.81;56.61;100472.91;5069399;28;20444;-67
2022/04/10 06:11:22;;;;;;;9.67;4.00;;;;;;;8.69;56.23;100486.38;5041541;28;20493;-67
2022/04/10 06:13:48;;;;;;;8.00;4.40;;;;;;;7.93;58.35;100476.25;5078418;28;20511;-68
2022/04/10 06:16:16;;;;;;;6.93;4.33;;;;;;;7.44;58.09;100486.13;5080596;28;20603;-67
2022/04/10 06:18:43;;;;;;;7.90;4.40;;;;;;;7.73;58.26;100483.09;5061878;28;20679;-67
2022/04/10 06:21:10;;;;;;;6.73;3.80;;;;;;;8.80;56.00;100489.03;5069648;28;20506;-68
2022/04/10 06:23:36;;;;;;;7.87;3.57;;;;;;;7.94;56.55;100495.75;5071552;28;20519;-68
2022/04/10 06:26:03;;;;;;;8.23;4.00;;;;;;;10.71;51.13;100505.06;5070441;28;20547;-69
2022/04/10 06:28:30;;;;;;;4.00;2.93;;;;;;;10.29;49.55;100495.28;5063119;28;20465;-69
2022/04/10 06:30:56;;;;;;;9.33;3.70;;;;;;;9.13;53.24;100500.59;5064035;28;20486;-71
2022/04/10 06:33:24;;;;;;;8.07;3.87;;;;;;;8.75;54.57;100505.41;5064560;28;20564;-68
2022/04/10 06:35:53;;;;;;;6.30;3.37;;;;;;;8.11;55.38;100497.97;5075405;28;20559;-68
2022/04/10 06:38:20;;;;;;;6.70;3.50;;;;;;;7.46;58.32;100512.63;5070247;28;20979;-67
2022/04/10 06:40:48;;;;;;;9.70;4.00;;;;;;;7.26;58.99;100508.81;5055908;28;20553;-68
2022/04/10 06:43:15;;;;;;;13.93;4.50;;;;;;;5.83;64.00;100517.88;5059927;28;21049;-68
2022/04/10 06:45:41;;;;;;;5.10;3.50;;;;;;;5.70;64.99;100516.97;5051633;28;20505;-69
2022/04/10 06:48:08;;;;;;;5.67;3.97;;;;;;;5.10;67.07;100510.31;5047714;28;20510;-70
2022/04/10 06:50:38;;;;;;;7.53;3.87;;;;;;;5.22;67.48;100513.97;5037196;28;20529;-71
2022/04/10 06:53:04;;;;;;;6.93;4.43;;;;;;;6.82;63.87;100512.88;5047675;28;20449;-70
2022/04/10 06:55:32;;;;;;;6.80;4.50;;;;;;;8.21;58.67;100520.25;5059099;28;20469;-69
2022/04/10 06:57:58;;;;;;;7.90;3.87;;;;;;;9.39;54.59;100526.00;5052253;28;20453;-68
2022/04/10 07:00:25;;;;;;;8.53;3.70;;;;;;;11.37;48.62;100517.06;5051018;28;20463;-69
2022/04/10 07:02:52;;;;;;;11.17;3.90;;;;;;;9.57;51.15;100528.97;5047336;28;20458;-69
2022/04/10 07:05:19;;;;;;;14.20;4.30;;;;;;;7.30;57.66;100527.06;5039735;28;20489;-73
2022/04/10 07:07:47;;;;;;;9.93;4.00;;;;;;;6.21;63.14;100532.16;5048534;28;20441;-73
2022/04/10 07:10:14;;;;;;;8.90;4.23;;;;;;;6.91;62.29;100541.44;5038769;28;20458;-72
2022/04/10 07:12:41;;;;;;;6.87;4.53;;;;;;;6.90;61.55;100545.06;5054457;28;20504;-72
2022/04/10 07:15:08;;;;;;;12.80;4.17;;;;;;;5.99;65.14;100538.94;5039409;28;20449;-71
2022/04/10 07:17:35;;;;;;;8.47;4.57;;;;;;;6.19;64.88;100536.72;5040815;28;20479;-72
2022/04/10 07:20:02;;;;;;;7.90;4.30;;;;;;;6.45;64.05;100536.72;5043082;28;20966;-69
2022/04/10 07:25:14;;;;;;;11.20;4.93;;;;;;;5.65;67.31;100542.97;5039563;28;20519;-67
2022/04/10 07:27:41;;;;;;;12.70;5.17;;;;;;;6.64;65.35;100553.06;5038625;28;20528;-68
2022/04/10 07:30:10;;;;;;;6.67;4.60;;;;;;;7.44;61.57;100551.81;5045629;28;20456;-68
2022/04/10 07:32:37;;;;;;;8.57;4.23;;;;;;;7.15;62.06;100550.31;5037521;28;20458;-69
2022/04/10 07:35:04;;;;;;;7.90;4.60;;;;;;;7.12;63.08;100553.19;5038668;28;20449;-68
2022/04/10 07:37:31;;;;;;;12.43;4.57;;;;;;;8.23;59.56;100550.28;5051041;28;20505;-68
2022/04/10 07:39:58;;;;;;;11.30;5.13;;;;;;;8.37;57.61;100551.03;5052517;28;20483;-69
2022/04/10 07:42:27;;;;;;;8.00;3.77;;;;;;;8.94;57.04;100550.09;5049835;28;20532;-69
2022/04/10 07:44:59;;;;;;;10.97;3.93;;;;;;;7.49;60.06;100555.81;5054954;28;20490;-69
2022/04/10 07:47:31;;;;;;;11.60;3.70;;;;;;;7.92;59.54;100546.44;5069179;28;20507;-69
2022/04/10 07:49:58;;;;;;;10.70;4.37;;;;;;;8.29;58.87;100549.78;5059339;28;20456;-70
2022/04/10 07:52:25;;;;;;;7.93;3.47;;;;;;;10.00;53.65;100553.91;5057534;28;20484;-69
2022/04/10 07:54:52;;;;;;;6.27;3.20;;;;;;;10.86;51.52;100559.06;5058652;28;20806;-69
2022/04/10 07:57:19;;;;;;;7.07;3.17;;;;;;;11.98;47.51;100564.22;5059104;28;20488;-69
2022/04/10 07:59:47;;;;;;;7.10;3.10;;;;;;;8.95;54.61;100561.63;5062886;28;20457;-68
2022/04/10 08:02:14;;;;;;;7.43;3.40;;;;;;;8.20;57.83;100566.50;5068638;28;20508;-69
2022/04/10 08:04:43;;;;;;;5.83;4.30;;;;;;;7.84;58.90;100578.94;5078014;28;20836;-69
2022/04/10 08:07:10;;;;;;;7.33;3.00;;;;;;;8.43;58.67;100578.06;5069076;28;20491;-69
2022/04/10 08:09:37;;;;;;;7.83;3.50;;;;;;;7.60;59.99;100592.25;5065862;28;20445;-69
2022/04/10 08:12:04;;;;;;;8.77;5.00;;;;;;;7.78;60.10;100590.06;5062370;28;20485;-69
2022/04/10 08:14:30;;;;;;;7.47;3.43;;;;;;;7.98;60.46;100598.38;5057615;28;20444;-69
2022/04/10 08:17:01;;;;;;;6.87;2.70;;;;;;;8.00;59.39;100594.66;5062617;28;20526;-69
2022/04/10 08:19:29;;;;;;;9.90;3.40;;;;;;;8.18;60.46;100592.41;5057018;28;20955;-68
2022/04/10 08:21:56;;;;;;;7.20;3.73;;;;;;;8.60;57.60;100592.75;5061684;28;20487;-68
2022/04/10 08:24:23;;;;;;;5.03;2.67;;;;;;;7.62;59.51;100601.00;5057206;28;20507;-69
2022/04/10 08:26:49;;;;;;;10.20;3.13;;;;;;;7.28;60.83;100606.13;5056434;28;20515;-69
2022/04/10 08:29:19;;;;;;;7.20;3.40;;;;;;;7.00;61.84;100606.41;5057313;28;20524;-69
2022/04/10 08:31:45;;;;;;;4.50;3.00;;;;;;;7.64;61.44;100608.88;5061031;28;20515;-68
2022/04/10 08:34:13;;;;;;;4.40;2.70;;;;;;;8.18;58.47;100599.53;5058200;28;20453;-69
2022/04/10 08:36:40;;;;;;;7.33;3.20;;;;;;;8.96;56.00;100600.66;5060446;28;20669;-69
2022/04/10 08:39:07;;;;;;;4.63;2.83;;;;;;;9.23;55.66;100608.25;5056346;28;20475;-68
2022/04/10 08:41:34;;;;;;;6.10;2.10;;;;;;;8.14;57.38;100617.53;5061523;28;20483;-68
2022/04/10 08:44:04;;;;;;;5.50;2.50;;;;;;;9.48;54.77;100611.59;5077561;28;20471;-69
2022/04/10 08:46:31;;;;;;;6.73;2.67;;;;;;;9.88;53.10;100619.03;5061368;28;21426;-70
2022/04/10 08:49:00;;;;;;;5.60;2.30;;;;;;;9.62;54.07;100622.03;5062153;28;20591;-69
2022/04/10 08:51:29;;;;;;;5.30;1.60;;;;;;;8.93;55.44;100628.41;5057040;28;20503;-67
2022/04/10 08:53:59;;;;;;;3.60;1.70;;;;;;;9.79;53.32;100621.50;5069620;28;20448;-66
2022/04/10 08:56:25;;;;;;;5.57;2.13;;;;;;;10.73;51.42;100624.31;5076972;28;20474;-68
2022/04/10 08:58:52;;;;;;;6.10;2.50;;;;;;;9.95;51.27;100623.72;5060536;28;20469;-69
2022/04/10 09:01:22;;;;;;;4.27;2.17;;;;;;;9.82;52.77;100633.72;5055823;28;20476;-73
2022/04/10 09:03:49;;;;;;;9.80;2.57;;;;;;;10.34;50.88;100631.22;5069878;28;20453;-69
2022/04/10 09:06:16;;;;;;;4.63;2.20;;;;;;;10.42;50.47;100634.13;5056835;28;20480;-70
2022/04/10 09:08:44;;;;;;;4.23;2.57;;;;;;;9.44;54.51;100629.69;5069287;28;20441;-68
2022/04/10 09:11:12;;;;;;;5.27;2.33;;;;;;;9.87;53.08;100633.34;5057677;28;20495;-69
2022/04/10 09:13:39;;;;;;;9.57;2.70;;;;;;;8.86;54.25;100637.84;5056905;28;20476;-68
2022/04/10 09:16:12;;;;;;;5.10;2.17;;;;;;;9.80;52.78;100641.03;5062098;28;20495;-68
2022/04/10 09:18:54;;;;;;;3.03;1.20;;;;;;;9.30;53.89;100628.13;5063143;28;20436;-68
2022/04/10 09:21:24;;;;;;;7.30;1.83;;;;;;;9.78;51.40;100634.97;5059486;28;21026;-68
2022/04/10 09:23:57;;;;;;;4.63;2.50;;;;;;;10.05;51.29;100631.84;5062539;28;20463;-69
2022/04/10 09:26:24;;;;;;;5.10;1.60;;;;;;;11.00;50.52;100630.06;5059364;28;20796;-69
2022/04/10 09:28:52;;;;;;;2.40;1.33;;;;;;;9.83;52.23;100630.09;5072990;28;20460;-69
2022/04/10 09:31:30;;;;;;;8.43;1.80;;;;;;;9.42;54.70;100634.31;5078231;28;20464;-69
2022/04/10 09:33:58;;;;;;;7.93;1.67;;;;;;;8.86;55.48;100632.53;5067305;28;20804;-69
2022/04/10 09:36:34;;;;;;;4.30;1.73;;;;;;;8.67;55.83;100625.09;5070835;28;20480;-68
2022/04/10 09:39:04;;;;;;;3.73;1.47;;;;;;;9.11;54.16;100617.25;5076136;28;20507;-69
2022/04/10 09:41:30;;;;;;;3.87;1.23;;;;;;;9.50;52.51;100623.88;5071269;28;20503;-69
2022/04/10 09:44:00;;;;;;;4.77;1.50;;;;;;;9.03;55.09;100624.03;5072837;28;20481;-68
2022/04/10 09:46:30;;;;;;;3.30;1.70;;;;;;;9.25;55.23;100624.97;5069941;28;20486;-68
2022/04/10 09:48:58;;;;;;;4.03;1.50;;;;;;;8.80;55.88;100625.84;5066390;28;20920;-68
2022/04/10 09:51:24;;;;;;;2.50;1.40;;;;;;;8.73;57.01;100627.31;5079113;28;20484;-69
2022/04/10 09:54:06;;;;;;;4.23;1.57;;;;;;;8.82;60.48;100628.41;5060547;28;20445;-69
2022/04/10 09:56:33;;;;;;;4.40;1.40;;;;;;;10.69;56.48;100630.91;5078322;28;20968;-69
2022/04/10 09:59:00;;;;;;;2.77;1.30;;;;;;;11.99;49.62;100622.16;5060876;28;20459;-69
2022/04/10 10:01:28;;;;;;;4.17;1.50;;;;;;;11.84;48.01;100621.72;5077682;28;20471;-69
2022/04/10 10:03:56;;;;;;;4.40;1.60;;;;;;;13.97;44.35;100620.31;5058918;28;20453;-69
2022/04/10 10:06:23;;;;;;;1.77;0.90;;;;;;;13.20;44.90;100623.31;5077318;28;20479;-71
2022/04/10 10:08:50;;;;;;;3.70;1.23;;;;;;;10.96;47.09;100618.78;5073003;28;20539;-68
2022/04/10 10:11:21;;;;;;;4.50;1.10;;;;;;;11.68;45.26;100625.78;5058656;28;21018;-69
2022/04/10 10:13:48;;;;;;;3.33;1.50;;;;;;;12.36;42.57;100616.06;5072068;28;20444;-69
2022/04/10 10:16:16;;;;;;;4.20;1.47;;;;;;;10.01;48.09;100606.34;5058349;28;20469;-68
2022/04/10 10:18:44;;;;;;;2.80;1.30;;;;;;;10.33;49.88;100601.00;5063944;28;20441;-68
2022/04/10 10:21:11;;;;;;;4.20;1.47;;;;;;;13.02;44.57;100601.78;5060247;28;20464;-68
2022/04/10 10:23:41;;;;;;;4.50;1.33;;;;;;;14.65;41.45;100608.94;5059203;28;20468;-68
2022/04/10 10:26:14;;;;;;;2.23;0.90;;;;;;;12.39;44.77;100610.41;5065628;28;20534;-68
2022/04/10 10:28:55;;;;;;;2.87;1.43;;;;;;;11.55;46.01;100602.94;5060239;28;20499;-68
2022/04/10 10:31:33;;;;;;;3.57;1.50;;;;;;;12.08;45.40;100607.06;5072751;28;20939;-67
2022/04/10 10:34:04;;;;;;;2.60;1.00;;;;;;;11.49;46.47;100597.13;5059580;28;20437;-68
2022/04/10 10:36:31;;;;;;;5.43;1.00;;;;;;;10.58;48.46;100606.06;5073427;28;20619;-68
2022/04/10 10:38:58;;;;;;;4.53;1.07;;;;;;;8.79;53.61;100613.47;5060044;28;20498;-68
2022/04/10 10:41:33;;;;;;;6.80;1.43;;;;;;;8.76;54.51;100623.53;5070998;28;20480;-68
2022/04/10 10:44:15;;;;;;;2.93;1.50;;;;;;;8.35;55.58;100620.41;5079974;28;20451;-68
2022/04/10 10:46:56;;;;;;;2.70;1.30;;;;;;;8.60;55.28;100614.06;5024436;28;20564;-68
2022/04/10 10:49:23;;;;;;;4.33;1.70;;;;;;;7.97;58.18;100629.47;5039051;28;20438;-68
2022/04/10 10:51:50;;;;;;;2.00;1.60;;;;;;;8.31;57.45;100634.91;5051958;28;20485;-68
2022/04/10 10:54:24;;;;;;;2.00;1.47;;;;;;;8.34;57.48;100625.84;5034655;28;20466;-68
2022/04/10 10:56:52;;;;;;;5.90;1.80;;;;;;;8.19;58.21;100627.84;5035485;28;20478;-67
2022/04/10 10:59:33;;;;;;;7.50;2.13;;;;;;;8.57;58.61;100627.63;5053565;28;20474;-69
2022/04/10 11:02:10;;;;;;;3.90;1.80;;;;;;;8.57;58.58;100635.63;5038840;28;20557;-69
2022/04/10 11:04:43;;;;;;;6.23;3.23;;;;;;;7.84;61.05;100652.66;5054544;28;20492;-68
2022/04/10 11:07:14;;;;;;;3.03;1.70;;;;;;;7.95;61.11;100633.22;5019048;28;20501;-69
2022/04/10 11:09:54;;;;;;;4.00;1.80;;;;;;;8.55;61.89;100629.56;5049406;28;20531;-70
2022/04/10 11:12:23;;;;;;;8.17;1.50;;;;;;;10.71;55.39;100630.75;5038303;28;20477;-69
2022/04/10 11:14:51;;;;;;;4.10;1.37;;;;;;;12.41;50.44;100628.06;5045598;28;20499;-69
2022/04/10 11:17:19;;;;;;;4.90;1.30;;;;;;;13.91;48.26;100630.69;5037817;28;20568;-70
2022/04/10 11:19:48;;;;;;;3.00;1.77;;;;;;;14.87;43.63;100621.03;5053030;28;20459;-69
2022/04/10 11:22:18;;;;;;;3.10;1.30;;;;;;;15.44;41.91;100623.16;5051895;28;20478;-69
2022/04/10 11:24:45;;;;;;;4.43;1.93;;;;;;;13.99;45.63;100623.69;5048634;28;20453;-69
2022/04/10 11:27:13;;;;;;;1.63;1.17;;;;;;;12.77;48.53;100614.00;5036766;28;20503;-69
2022/04/10 11:29:43;;;;;;;2.13;1.10;;;;;;;11.23;51.33;100623.56;5052609;28;20892;-69
2022/04/10 11:32:16;;;;;;;4.20;1.40;;;;;;;11.70;48.68;100622.97;5040694;28;20947;-69
2022/04/10 11:34:43;;;;;;;2.03;1.00;;;;;;;12.04;47.53;100630.63;5040367;28;20484;-68